Cos Orchid — S6EA5 — position and weather

sailwx.info

Track history (hours):
 
Tides and Currents Weather Stations Pressure Air Temp Water Temp Dewpoint Dewpoint Depression Visibility Wind Speed Wind Dir Waves Ship Positions

Cos Orchid

Last reported at 2018-Jan-03 13:56 UTC. Time now 2018-Jan-21 14:55 UTC.
Position N 36°30' E 026°46'.
Warning: this ship's position is 18 days out of date.

Length 190 m; draft 10.4 m.

Type: Cargo ship. MMSI: 565100000.

Date/timePositionNaut miles runAvg speedWind from/ knotsBaromVisibWave heightAir tempDewpointWater temp
2018-Jan-03 13:56N 36°30' E 026°46'612.8
2018-Jan-03 13:29N 36°33' E 026°41'613.0
2018-Jan-03 13:00N 36°38' E 026°36'713.3
2018-Jan-03 12:30N 36°43' E 026°30'713.6
2018-Jan-03 12:00N 36°48' E 026°24'713.5
2018-Jan-03 11:30N 36°53' E 026°18'713.2
2018-Jan-03 11:00N 36°57' E 026°12'713.2
2018-Jan-03 10:30N 37°02' E 026°06'713.8
2018-Jan-03 10:00N 37°07' E 026°00'713.5
2018-Jan-03 09:30N 37°12' E 025°54'712.9
2018-Jan-03 09:00N 37°18' E 025°51'713.7
2018-Jan-03 08:30N 37°24' E 025°50'713.8
2018-Jan-03 08:00N 37°31' E 025°50'813.5
2018-Jan-03 07:26N 37°39' E 025°50'713.0
2018-Jan-03 06:53N 37°46' E 025°50'613.0
2018-Jan-03 06:27N 37°52' E 025°50'  
2017-Dec-30 21:23N 38°13' E 024°56'2012.6
2017-Dec-30 19:46N 37°59' E 024°38'612.8
2017-Dec-30 19:17N 37°54' E 024°33'412.6
2017-Dec-30 19:01N 37°52' E 024°30'712.6
2017-Dec-30 18:29N 37°47' E 024°24'612.4
2017-Dec-30 18:01N 37°43' E 024°19'612.1
2017-Dec-30 17:30N 37°39' E 024°13'612.6
2017-Dec-30 17:00N 37°33' E 024°09'612.3
2017-Dec-30 16:30N 37°28' E 024°05'612.3
2017-Dec-30 16:01N 37°23' E 024°00'712.7
2017-Dec-30 15:30N 37°17' E 023°56'612.6
2017-Dec-30 15:00N 37°12' E 023°52'612.5
2017-Dec-30 14:30N 37°07' E 023°48'612.4
2017-Dec-30 14:00N 37°02' E 023°44'612.7
2017-Dec-30 13:31N 36°56' E 023°39'612.7
2017-Dec-30 13:00N 36°51' E 023°35'612.8
2017-Dec-30 12:31N 36°45' E 023°32'42112.3
2017-Dec-29 02:12N 36°26' E 014°48'312.9
2017-Dec-29 01:59N 36°26' E 014°45'612.6
2017-Dec-29 01:30N 36°27' E 014°37'612.4
2017-Dec-29 01:00N 36°27' E 014°29'612.7
2017-Dec-29 00:30N 36°29' E 014°22'612.5
2017-Dec-29 00:00N 36°30' E 014°14'612.8
2017-Dec-28 23:30N 36°32' E 014°07'  
2017-Dec-25 21:25N 35°60' W 005°10'614.7
2017-Dec-25 21:01N 35°59' W 005°18'714.3
2017-Dec-25 20:31N 35°58' W 005°27'  
Track history (hours):
 
Tides and Currents Weather Stations Pressure Air Temp Water Temp Dewpoint Dewpoint Depression Visibility Wind Speed Wind Dir Waves Ship Positions

Cos Orchid

Last reported at 2018-Jan-03 13:56 UTC. Time now 2018-Jan-21 14:55 UTC.
Position N 36°30' E 026°46'.
Warning: this ship's position is 18 days out of date.

Length 190 m; draft 10.4 m.

Type: Cargo ship. MMSI: 565100000.

Date/timePositionNaut miles runAvg speedWind from/ knotsBaromVisibWave heightAir tempDewpointWater temp
2018-Jan-03 13:56N 36°30' E 026°46'612.8
2018-Jan-03 13:29N 36°33' E 026°41'613.0
2018-Jan-03 13:00N 36°38' E 026°36'713.3
2018-Jan-03 12:30N 36°43' E 026°30'713.6
2018-Jan-03 12:00N 36°48' E 026°24'713.5
2018-Jan-03 11:30N 36°53' E 026°18'713.2
2018-Jan-03 11:00N 36°57' E 026°12'713.2
2018-Jan-03 10:30N 37°02' E 026°06'713.8
2018-Jan-03 10:00N 37°07' E 026°00'713.5
2018-Jan-03 09:30N 37°12' E 025°54'712.9
2018-Jan-03 09:00N 37°18' E 025°51'713.7
2018-Jan-03 08:30N 37°24' E 025°50'713.8
2018-Jan-03 08:00N 37°31' E 025°50'813.5
2018-Jan-03 07:26N 37°39' E 025°50'713.0
2018-Jan-03 06:53N 37°46' E 025°50'613.0
2018-Jan-03 06:27N 37°52' E 025°50'  
2017-Dec-30 21:23N 38°13' E 024°56'2012.6
2017-Dec-30 19:46N 37°59' E 024°38'612.8
2017-Dec-30 19:17N 37°54' E 024°33'412.6
2017-Dec-30 19:01N 37°52' E 024°30'712.6
2017-Dec-30 18:29N 37°47' E 024°24'612.4
2017-Dec-30 18:01N 37°43' E 024°19'612.1
2017-Dec-30 17:30N 37°39' E 024°13'612.6
2017-Dec-30 17:00N 37°33' E 024°09'612.3
2017-Dec-30 16:30N 37°28' E 024°05'612.3
2017-Dec-30 16:01N 37°23' E 024°00'712.7
2017-Dec-30 15:30N 37°17' E 023°56'612.6
2017-Dec-30 15:00N 37°12' E 023°52'612.5
2017-Dec-30 14:30N 37°07' E 023°48'612.4
2017-Dec-30 14:00N 37°02' E 023°44'612.7
2017-Dec-30 13:31N 36°56' E 023°39'612.7
2017-Dec-30 13:00N 36°51' E 023°35'612.8
2017-Dec-30 12:31N 36°45' E 023°32'42112.3
2017-Dec-29 02:12N 36°26' E 014°48'312.9
2017-Dec-29 01:59N 36°26' E 014°45'612.6
2017-Dec-29 01:30N 36°27' E 014°37'612.4
2017-Dec-29 01:00N 36°27' E 014°29'612.7
2017-Dec-29 00:30N 36°29' E 014°22'612.5
2017-Dec-29 00:00N 36°30' E 014°14'612.8
2017-Dec-28 23:30N 36°32' E 014°07'  
2017-Dec-25 21:25N 35°60' W 005°10'614.7
2017-Dec-25 21:01N 35°59' W 005°18'714.3
2017-Dec-25 20:31N 35°58' W 005°27'  

Dump ship's entire track history